Time;durP1;ratioP1;P1;durP2;ratioP2;P2;SDS_P1;SDS_P2;PMS_P1;PMS_P2;Temp;Humidity;BMP_temperature;BMP_pressure;BME280_temperature;BME280_humidity;BME280_pressure;Samples;Min_cycle;Max_cycle;Signal;HPM_P1;HPM_P2
2021/10/03 00:00:05;;;;;;;33.55;18.13;;;;;;;;;;4996478;28;20104;-45
2021/10/03 00:02:32;;;;;;;23.77;9.82;;;;;;;;;;4996392;28;20064;-44
2021/10/03 00:04:58;;;;;;;22.42;9.07;;;;;;;;;;4996574;28;20027;-46
2021/10/03 00:07:25;;;;;;;11.88;5.68;;;;;;;;;;4996287;28;20117;-45
2021/10/03 00:09:51;;;;;;;12.63;7.85;;;;;;;;;;4996219;28;20035;-47
2021/10/03 00:12:18;;;;;;;9.23;5.03;;;;;;;;;;4996296;28;20023;-46
2021/10/03 00:14:44;;;;;;;8.38;5.00;;;;;;;;;;4996318;28;20463;-46
2021/10/03 00:17:11;;;;;;;10.23;4.70;;;;;;;;;;4996159;28;20594;-46
2021/10/03 00:19:37;;;;;;;9.88;4.35;;;;;;;;;;4996075;28;20030;-45
2021/10/03 00:22:04;;;;;;;17.33;6.20;;;;;;;;;;4996087;28;20442;-46
2021/10/03 00:24:30;;;;;;;13.25;5.35;;;;;;;;;;4996064;28;20030;-46
2021/10/03 00:26:57;;;;;;;13.25;7.28;;;;;;;;;;4996159;28;20023;-45
2021/10/03 00:29:25;;;;;;;10.73;4.82;;;;;;;;;;4996110;28;20112;-45
2021/10/03 00:31:52;;;;;;;12.63;6.68;;;;;;;;;;4996053;28;20386;-45
2021/10/03 00:34:18;;;;;;;14.52;6.63;;;;;;;;;;4995696;28;20050;-49
2021/10/03 00:36:44;;;;;;;14.30;7.30;;;;;;;;;;4995811;28;20081;-45
2021/10/03 00:39:12;;;;;;;15.57;6.50;;;;;;;;;;4995815;28;20041;-50
2021/10/03 00:41:38;;;;;;;15.30;7.88;;;;;;;;;;4995958;28;20387;-46
2021/10/03 00:44:04;;;;;;;12.25;6.28;;;;;;;;;;4995435;28;20026;-53
2021/10/03 00:46:31;;;;;;;16.30;6.68;;;;;;;;;;4995751;28;20029;-46
2021/10/03 00:48:57;;;;;;;14.18;7.07;;;;;;;;;;4995516;28;20390;-46
2021/10/03 00:51:23;;;;;;;16.63;8.18;;;;;;;;;;4995496;28;20026;-46
2021/10/03 00:53:49;;;;;;;15.80;5.10;;;;;;;;;;4995837;28;20431;-46
2021/10/03 00:56:16;;;;;;;11.82;4.93;;;;;;;;;;4995497;28;20489;-46
2021/10/03 00:58:43;;;;;;;18.33;9.32;;;;;;;;;;4995545;28;20085;-45
2021/10/03 01:01:10;;;;;;;13.48;6.43;;;;;;;;;;4995354;28;20027;-46
2021/10/03 01:03:36;;;;;;;16.65;7.07;;;;;;;;;;4995301;28;20073;-46
2021/10/03 01:06:03;;;;;;;10.60;5.35;;;;;;;;;;4995283;28;20030;-45
2021/10/03 01:08:29;;;;;;;12.18;6.68;;;;;;;;;;4995231;28;20034;-46
2021/10/03 01:10:55;;;;;;;11.43;6.30;;;;;;;;;;4995182;28;20033;-45
2021/10/03 01:13:23;;;;;;;11.10;5.50;;;;;;;;;;4995364;28;20034;-45
2021/10/03 01:15:52;;;;;;;10.02;4.95;;;;;;;;;;4995082;28;20530;-45
2021/10/03 01:18:19;;;;;;;13.50;6.22;;;;;;;;;;4995042;28;20463;-45
2021/10/03 01:20:45;;;;;;;10.13;4.72;;;;;;;;;;4994921;28;20109;-45
2021/10/03 01:23:12;;;;;;;20.25;10.45;;;;;;;;;;4995301;28;20057;-46
2021/10/03 01:25:44;;;;;;;11.05;5.05;;;;;;;;;;4995500;28;20022;-49
2021/10/03 01:28:10;;;;;;;14.98;6.40;;;;;;;;;;4995096;28;20022;-46
2021/10/03 01:30:37;;;;;;;9.85;5.70;;;;;;;;;;4994878;28;20109;-45
2021/10/03 01:33:03;;;;;;;11.77;4.63;;;;;;;;;;4994650;28;20026;-48
2021/10/03 01:35:30;;;;;;;11.07;5.13;;;;;;;;;;4994523;28;20054;-45
2021/10/03 01:37:56;;;;;;;14.60;6.35;;;;;;;;;;4994773;28;20025;-56
2021/10/03 01:40:22;;;;;;;13.00;5.40;;;;;;;;;;4994744;28;20121;-46
2021/10/03 01:42:50;;;;;;;10.80;6.10;;;;;;;;;;4995071;28;20426;-45
2021/10/03 01:45:17;;;;;;;11.60;4.88;;;;;;;;;;4994713;28;20033;-46
2021/10/03 01:48:02;;;;;;;12.63;5.05;;;;;;;;;;4994759;28;20026;-46
2021/10/03 01:50:29;;;;;;;11.55;4.85;;;;;;;;;;4994440;28;20042;-45
2021/10/03 01:52:55;;;;;;;11.45;5.28;;;;;;;;;;4994375;28;20031;-45
2021/10/03 01:55:21;;;;;;;10.07;5.43;;;;;;;;;;4993992;28;20023;-47
2021/10/03 01:57:47;;;;;;;12.23;6.32;;;;;;;;;;4994617;28;20501;-45
2021/10/03 02:00:13;;;;;;;8.88;4.95;;;;;;;;;;4994343;28;20030;-45
2021/10/03 02:02:40;;;;;;;10.60;5.05;;;;;;;;;;4994267;28;20026;-45
2021/10/03 02:05:06;;;;;;;14.00;5.53;;;;;;;;;;4994135;28;20030;-46
2021/10/03 02:07:33;;;;;;;9.65;5.90;;;;;;;;;;4994320;28;20042;-45
2021/10/03 02:09:59;;;;;;;11.35;5.78;;;;;;;;;;4994346;28;20034;-45
2021/10/03 02:12:26;;;;;;;15.27;6.13;;;;;;;;;;4994159;28;20026;-45
2021/10/03 02:14:52;;;;;;;10.32;5.63;;;;;;;;;;4994101;28;20030;-45
2021/10/03 02:17:18;;;;;;;10.57;5.63;;;;;;;;;;4994209;28;20106;-45
2021/10/03 02:19:46;;;;;;;7.80;5.10;;;;;;;;;;4994135;28;20059;-46
2021/10/03 02:22:14;;;;;;;18.85;6.82;;;;;;;;;;4994443;28;20030;-46
2021/10/03 02:24:40;;;;;;;6.60;4.55;;;;;;;;;;4994206;28;20022;-45
2021/10/03 02:27:06;;;;;;;13.82;7.43;;;;;;;;;;4993982;28;20086;-45
2021/10/03 02:29:32;;;;;;;11.05;4.55;;;;;;;;;;4994064;28;20034;-46
2021/10/03 02:31:59;;;;;;;10.10;5.53;;;;;;;;;;4993990;28;20589;-45
2021/10/03 02:34:26;;;;;;;16.70;6.10;;;;;;;;;;4993755;28;20121;-45
2021/10/03 02:36:57;;;;;;;12.27;6.22;;;;;;;;;;4994239;28;20037;-45
2021/10/03 02:39:23;;;;;;;13.02;6.63;;;;;;;;;;4994105;28;20030;-45
2021/10/03 02:41:50;;;;;;;19.35;5.95;;;;;;;;;;4993847;28;20030;-46
2021/10/03 02:44:16;;;;;;;11.35;4.88;;;;;;;;;;4994019;28;20058;-46
2021/10/03 02:46:45;;;;;;;13.13;5.82;;;;;;;;;;4994046;28;20151;-45
2021/10/03 02:49:11;;;;;;;7.03;4.88;;;;;;;;;;4993898;28;20134;-45
2021/10/03 02:51:37;;;;;;;9.60;5.25;;;;;;;;;;4993846;28;20479;-45
2021/10/03 02:54:03;;;;;;;10.75;4.82;;;;;;;;;;4993907;28;20110;-51
2021/10/03 02:56:30;;;;;;;9.10;4.78;;;;;;;;;;4993729;28;20026;-48
2021/10/03 02:58:56;;;;;;;7.65;5.18;;;;;;;;;;4994123;28;20035;-45
2021/10/03 03:01:22;;;;;;;11.75;4.82;;;;;;;;;;4993819;28;20026;-45
2021/10/03 03:03:48;;;;;;;10.20;5.50;;;;;;;;;;4993531;28;20033;-45
2021/10/03 03:06:15;;;;;;;13.70;4.93;;;;;;;;;;4994555;28;20030;-47
2021/10/03 03:08:41;;;;;;;15.10;6.28;;;;;;;;;;4997507;28;20054;-46
2021/10/03 03:11:08;;;;;;;15.20;5.05;;;;;;;;;;4997624;28;20554;-45
2021/10/03 03:13:36;;;;;;;12.63;5.35;;;;;;;;;;4997834;28;20101;-45
2021/10/03 03:16:05;;;;;;;9.13;5.95;;;;;;;;;;4997470;28;20038;-45
2021/10/03 03:18:34;;;;;;;12.98;5.68;;;;;;;;;;4997340;28;20499;-45
2021/10/03 03:21:00;;;;;;;15.05;5.90;;;;;;;;;;4997429;28;20055;-46
2021/10/03 03:23:29;;;;;;;12.07;5.72;;;;;;;;;;4997491;28;20105;-45
2021/10/03 03:25:55;;;;;;;12.35;6.07;;;;;;;;;;4997414;28;20065;-45
2021/10/03 03:28:21;;;;;;;10.20;5.53;;;;;;;;;;4997349;28;20023;-45
2021/10/03 03:30:47;;;;;;;11.05;5.57;;;;;;;;;;4997115;28;20080;-45
2021/10/03 03:33:15;;;;;;;12.93;5.63;;;;;;;;;;4996884;28;20054;-45
2021/10/03 03:35:41;;;;;;;12.95;5.72;;;;;;;;;;4997018;28;20066;-45
2021/10/03 03:38:09;;;;;;;12.02;5.53;;;;;;;;;;4997352;28;20093;-45
2021/10/03 03:40:35;;;;;;;11.05;5.97;;;;;;;;;;4997114;28;20039;-45
2021/10/03 03:43:01;;;;;;;11.80;5.13;;;;;;;;;;4997367;28;20038;-45
2021/10/03 03:45:27;;;;;;;12.57;5.18;;;;;;;;;;4997084;28;20072;-45
2021/10/03 03:47:53;;;;;;;11.65;4.97;;;;;;;;;;4996657;28;20018;-46
2021/10/03 03:50:19;;;;;;;10.23;6.03;;;;;;;;;;4996861;28;20038;-45
2021/10/03 03:52:45;;;;;;;15.98;6.00;;;;;;;;;;4997144;28;20101;-45
2021/10/03 03:55:12;;;;;;;14.85;4.95;;;;;;;;;;4996763;28;20022;-45
2021/10/03 03:57:38;;;;;;;9.38;4.60;;;;;;;;;;4996848;28;20018;-45
2021/10/03 04:00:06;;;;;;;12.55;5.82;;;;;;;;;;4996628;28;20118;-45
2021/10/03 04:02:33;;;;;;;11.05;5.55;;;;;;;;;;4996581;28;20105;-45
2021/10/03 04:04:59;;;;;;;12.35;5.22;;;;;;;;;;4996455;28;20038;-45
2021/10/03 04:07:25;;;;;;;11.05;5.75;;;;;;;;;;4996563;28;20030;-45
2021/10/03 04:09:51;;;;;;;15.57;6.35;;;;;;;;;;4996493;28;20065;-45
2021/10/03 04:12:17;;;;;;;12.13;5.82;;;;;;;;;;4996690;28;20022;-45
2021/10/03 04:14:43;;;;;;;15.07;5.90;;;;;;;;;;4996376;28;20030;-45
2021/10/03 04:17:09;;;;;;;9.40;5.45;;;;;;;;;;4996346;28;20474;-45
2021/10/03 04:19:35;;;;;;;12.38;6.00;;;;;;;;;;4995366;28;20110;-45
2021/10/03 04:22:02;;;;;;;11.23;5.45;;;;;;;;;;4996349;28;20029;-45
2021/10/03 04:24:28;;;;;;;11.82;5.55;;;;;;;;;;4996240;28;20022;-45
2021/10/03 04:26:54;;;;;;;10.32;5.45;;;;;;;;;;4996327;28;20022;-45
2021/10/03 04:29:20;;;;;;;9.43;5.45;;;;;;;;;;4995988;28;20475;-46
2021/10/03 04:31:46;;;;;;;12.50;5.97;;;;;;;;;;4996070;28;20027;-45
2021/10/03 04:34:12;;;;;;;10.55;5.43;;;;;;;;;;4995474;28;20054;-45
2021/10/03 04:36:38;;;;;;;11.20;6.60;;;;;;;;;;4995997;28;20030;-45
2021/10/03 04:39:05;;;;;;;9.32;5.72;;;;;;;;;;4995992;28;20031;-45
2021/10/03 04:41:31;;;;;;;12.10;6.00;;;;;;;;;;4996084;28;20482;-46
2021/10/03 04:43:57;;;;;;;13.07;6.45;;;;;;;;;;4996058;28;20050;-45
2021/10/03 04:46:23;;;;;;;14.65;5.47;;;;;;;;;;4995767;28;20027;-45
2021/10/03 04:48:49;;;;;;;13.32;6.38;;;;;;;;;;4995525;28;20426;-45
2021/10/03 04:51:15;;;;;;;17.92;6.82;;;;;;;;;;4995820;28;20058;-46
2021/10/03 04:53:42;;;;;;;14.48;6.53;;;;;;;;;;4995786;28;20029;-46
2021/10/03 04:56:12;;;;;;;13.88;5.47;;;;;;;;;;4995548;28;20105;-45
2021/10/03 04:58:39;;;;;;;13.60;6.35;;;;;;;;;;4995511;28;20022;-45
2021/10/03 05:01:05;;;;;;;18.17;6.60;;;;;;;;;;4995664;28;20081;-45
2021/10/03 05:03:35;;;;;;;12.02;6.68;;;;;;;;;;4995101;28;20509;-46
2021/10/03 05:06:01;;;;;;;23.35;10.70;;;;;;;;;;4995648;28;20038;-45
2021/10/03 05:08:27;;;;;;;13.85;7.30;;;;;;;;;;4995519;28;20050;-46
2021/10/03 05:10:53;;;;;;;22.50;11.13;;;;;;;;;;4995286;28;20379;-46
2021/10/03 05:13:19;;;;;;;27.17;15.05;;;;;;;;;;4995436;28;20022;-49
2021/10/03 05:15:45;;;;;;;18.80;9.63;;;;;;;;;;4995253;28;20040;-46
2021/10/03 05:18:11;;;;;;;13.88;5.22;;;;;;;;;;4993455;28;20042;-45
2021/10/03 05:20:37;;;;;;;12.77;6.00;;;;;;;;;;4995192;28;20035;-46
2021/10/03 05:23:03;;;;;;;14.77;5.93;;;;;;;;;;4995031;28;20053;-45
2021/10/03 05:25:29;;;;;;;10.93;5.68;;;;;;;;;;4995071;28;20467;-45
2021/10/03 05:27:55;;;;;;;14.32;5.80;;;;;;;;;;4994910;28;20053;-47
2021/10/03 05:30:21;;;;;;;10.52;5.68;;;;;;;;;;4993850;28;20077;-45
2021/10/03 05:32:48;;;;;;;18.65;7.82;;;;;;;;;;4994772;28;20470;-46
2021/10/03 05:35:14;;;;;;;17.20;8.10;;;;;;;;;;4994623;28;20502;-45
2021/10/03 05:37:40;;;;;;;16.02;6.65;;;;;;;;;;4995064;28;20050;-45
2021/10/03 05:40:10;;;;;;;16.00;6.40;;;;;;;;;;4994876;28;20035;-46
2021/10/03 05:42:36;;;;;;;17.10;7.68;;;;;;;;;;4994767;28;20143;-45
2021/10/03 05:45:03;;;;;;;27.45;8.57;;;;;;;;;;4994511;28;20029;-45
2021/10/03 05:47:30;;;;;;;16.33;6.90;;;;;;;;;;4994705;28;20033;-46
2021/10/03 05:49:57;;;;;;;11.52;5.80;;;;;;;;;;4994532;28;20041;-46
2021/10/03 05:52:23;;;;;;;13.70;5.20;;;;;;;;;;4994772;28;20453;-46
2021/10/03 05:54:49;;;;;;;10.00;5.15;;;;;;;;;;4994589;28;20026;-46
2021/10/03 05:57:16;;;;;;;8.10;4.82;;;;;;;;;;4994415;28;20085;-47
2021/10/03 05:59:44;;;;;;;11.13;5.30;;;;;;;;;;4994501;28;20022;-46
2021/10/03 06:02:10;;;;;;;11.02;4.50;;;;;;;;;;4994421;28;20033;-46
2021/10/03 06:04:36;;;;;;;29.33;13.02;;;;;;;;;;4994178;28;20363;-46
2021/10/03 06:07:03;;;;;;;13.95;5.93;;;;;;;;;;4994627;28;20058;-46
2021/10/03 06:09:29;;;;;;;12.73;6.93;;;;;;;;;;4994250;28;20072;-47
2021/10/03 06:11:55;;;;;;;18.40;8.85;;;;;;;;;;4994329;28;20039;-46
2021/10/03 06:14:21;;;;;;;13.63;6.70;;;;;;;;;;4994288;28;20027;-47
2021/10/03 06:16:48;;;;;;;12.05;6.43;;;;;;;;;;4994134;28;20499;-47
2021/10/03 06:19:17;;;;;;;12.27;4.25;;;;;;;;;;4971380;28;20031;-46
2021/10/03 06:21:43;;;;;;;6.97;4.53;;;;;;;;;;4982147;28;20026;-46
2021/10/03 06:24:10;;;;;;;8.52;4.25;;;;;;;;;;4983634;28;20021;-46
2021/10/03 06:26:36;;;;;;;10.80;4.85;;;;;;;;;;4981096;28;20035;-47
2021/10/03 06:29:03;;;;;;;10.45;4.43;;;;;;;;;;4983174;28;20019;-46
2021/10/03 06:31:29;;;;;;;9.43;4.93;;;;;;;;;;4981512;28;20027;-46
2021/10/03 06:33:55;;;;;;;15.40;5.43;;;;;;;;;;4982771;28;20046;-46
2021/10/03 06:36:24;;;;;;;9.38;4.75;;;;;;;;;;4983178;28;20046;-46
2021/10/03 06:38:50;;;;;;;12.68;6.00;;;;;;;;;;4981329;28;20036;-46
2021/10/03 06:41:16;;;;;;;67.68;41.67;;;;;;;;;;4984363;28;20037;-46
2021/10/03 06:43:42;;;;;;;70.57;44.80;;;;;;;;;;4987642;28;20035;-57
2021/10/03 06:46:08;;;;;;;26.48;14.88;;;;;;;;;;4985642;28;20445;-49
2021/10/03 06:48:36;;;;;;;19.10;8.93;;;;;;;;;;4984388;28;20475;-50
2021/10/03 06:51:05;;;;;;;16.10;8.93;;;;;;;;;;4986052;28;20030;-50
2021/10/03 06:53:32;;;;;;;27.30;17.80;;;;;;;;;;4986005;28;20158;-53
2021/10/03 06:55:58;;;;;;;11.30;6.80;;;;;;;;;;4987559;28;20395;-50
2021/10/03 06:58:24;;;;;;;38.65;21.75;;;;;;;;;;4987729;28;20033;-50
2021/10/03 07:00:50;;;;;;;56.65;40.05;;;;;;;;;;4986865;28;20137;-50
2021/10/03 07:03:16;;;;;;;12.60;7.10;;;;;;;;;;4987256;28;20425;-49
2021/10/03 07:05:43;;;;;;;32.13;16.25;;;;;;;;;;4985590;28;20114;-51
2021/10/03 07:08:09;;;;;;;19.42;7.28;;;;;;;;;;4986190;28;20093;-45
2021/10/03 07:10:35;;;;;;;16.92;9.00;;;;;;;;;;4987144;28;20037;-44
2021/10/03 07:13:01;;;;;;;16.60;9.13;;;;;;;;;;4985090;28;20573;-46
2021/10/03 07:15:27;;;;;;;25.77;21.38;;;;;;;;;;4987857;28;20023;-53
2021/10/03 07:17:53;;;;;;;40.28;22.40;;;;;;;;;;4985025;28;20433;-51
2021/10/03 07:20:19;;;;;;;25.95;12.68;;;;;;;;;;4986984;28;20560;-43
2021/10/03 07:22:45;;;;;;;26.67;16.85;;;;;;;;;;4985625;28;20026;-48
2021/10/03 07:25:14;;;;;;;15.68;12.07;;;;;;;;;;4985459;28;20065;-48
2021/10/03 07:27:42;;;;;;;19.75;8.00;;;;;;;;;;4986448;28;20022;-51
2021/10/03 07:30:08;;;;;;;12.27;6.60;;;;;;;;;;4985885;28;20507;-56
2021/10/03 07:32:36;;;;;;;122.43;109.10;;;;;;;;;;4984707;28;20023;-53
2021/10/03 07:35:04;;;;;;;26.85;18.50;;;;;;;;;;4982557;28;20067;-54
2021/10/03 07:37:31;;;;;;;20.90;9.20;;;;;;;;;;4969819;28;20033;-55
2021/10/03 07:39:57;;;;;;;11.88;6.25;;;;;;;;;;4970236;28;20030;-51
2021/10/03 07:42:24;;;;;;;16.15;6.47;;;;;;;;;;4969369;28;20129;-49
2021/10/03 07:44:50;;;;;;;52.22;43.95;;;;;;;;;;4969654;28;20605;-46
2021/10/03 07:47:16;;;;;;;9.68;5.80;;;;;;;;;;4969606;28;20439;-50
2021/10/03 07:49:44;;;;;;;28.75;14.88;;;;;;;;;;4969956;28;20928;-57
2021/10/03 07:52:11;;;;;;;20.60;10.43;;;;;;;;;;4969418;28;20067;-51
2021/10/03 07:54:37;;;;;;;27.25;10.80;;;;;;;;;;4968040;28;20565;-52
2021/10/03 07:57:03;;;;;;;44.08;18.27;;;;;;;;;;4969305;28;20034;-56
2021/10/03 07:59:29;;;;;;;13.95;5.85;;;;;;;;;;4969797;28;20030;-50
2021/10/03 08:01:55;;;;;;;33.00;14.88;;;;;;;;;;4970505;28;20034;-49
2021/10/03 08:04:23;;;;;;;13.05;6.75;;;;;;;;;;4969536;28;20030;-49
2021/10/03 08:06:49;;;;;;;15.65;5.15;;;;;;;;;;4969745;28;20041;-49
2021/10/03 08:09:16;;;;;;;26.13;13.77;;;;;;;;;;4969888;28;20030;-53
2021/10/03 08:11:42;;;;;;;17.83;8.50;;;;;;;;;;4969155;28;20180;-51
2021/10/03 08:14:08;;;;;;;13.15;4.63;;;;;;;;;;4970455;28;20038;-51
2021/10/03 08:16:34;;;;;;;15.82;6.00;;;;;;;;;;4968616;28;20129;-57
2021/10/03 08:19:03;;;;;;;8.65;3.92;;;;;;;;;;4969516;28;20030;-49
2021/10/03 08:21:29;;;;;;;8.75;4.18;;;;;;;;;;4967521;28;20026;-50
2021/10/03 08:23:55;;;;;;;9.75;3.63;;;;;;;;;;4969288;28;20033;-50
2021/10/03 08:26:22;;;;;;;21.15;9.50;;;;;;;;;;4969161;28;20668;-50
2021/10/03 08:28:48;;;;;;;48.70;19.58;;;;;;;;;;4969165;28;20056;-50
2021/10/03 08:31:14;;;;;;;14.52;6.65;;;;;;;;;;4968946;28;20506;-52
2021/10/03 08:33:40;;;;;;;19.63;7.07;;;;;;;;;;4969661;28;20030;-55
2021/10/03 08:36:06;;;;;;;8.75;4.65;;;;;;;;;;4968759;28;20172;-50
2021/10/03 08:38:32;;;;;;;12.95;4.38;;;;;;;;;;4968815;28;20109;-58
2021/10/03 08:41:00;;;;;;;7.28;3.60;;;;;;;;;;4969912;28;20075;-50
2021/10/03 08:43:26;;;;;;;11.85;4.18;;;;;;;;;;4969061;28;20026;-50
2021/10/03 08:45:54;;;;;;;27.52;14.20;;;;;;;;;;4969629;28;20022;-49
2021/10/03 08:48:20;;;;;;;13.82;4.97;;;;;;;;;;4970538;28;20030;-51
2021/10/03 08:50:47;;;;;;;8.10;4.35;;;;;;;;;;4968751;28;20034;-49
2021/10/03 08:53:14;;;;;;;7.97;3.90;;;;;;;;;;4968614;28;20034;-49
2021/10/03 08:55:43;;;;;;;12.35;3.95;;;;;;;;;;4969887;28;20141;-52
2021/10/03 08:58:09;;;;;;;9.52;4.57;;;;;;;;;;4970280;28;20029;-49
2021/10/03 09:00:46;;;;;;;12.70;3.60;;;;;;;;;;4969665;28;20636;-50
2021/10/03 09:03:13;;;;;;;13.70;4.00;;;;;;;;;;4969977;28;20038;-51
2021/10/03 09:05:40;;;;;;;7.80;4.10;;;;;;;;;;4970544;28;20101;-49
2021/10/03 09:08:15;;;;;;;9.27;3.95;;;;;;;;;;4969401;28;20029;-49
2021/10/03 09:10:46;;;;;;;10.65;4.35;;;;;;;;;;4968794;28;20038;-49
2021/10/03 09:13:12;;;;;;;;;;;;;;;;;;4969884;28;21068;-49
2021/10/03 09:15:38;;;;;;;7.25;3.33;;;;;;;;;;4968775;28;20456;-49
2021/10/03 09:18:05;;;;;;;6.13;3.67;;;;;;;;;;4969210;28;20410;-52
2021/10/03 09:20:31;;;;;;;8.02;2.95;;;;;;;;;;4968743;28;20088;-49
2021/10/03 09:22:58;;;;;;;10.07;3.70;;;;;;;;;;4971362;28;20034;-51
2021/10/03 09:25:43;;;;;;;10.85;4.22;;;;;;;;;;4968983;28;20529;-50
2021/10/03 09:28:12;;;;;;;7.35;3.50;;;;;;;;;;4968312;28;20033;-49
2021/10/03 09:30:52;;;;;;;8.07;3.75;;;;;;;;;;4967945;28;20038;-53
2021/10/03 09:33:18;;;;;;;8.77;3.87;;;;;;;;;;4967960;28;20516;-53
2021/10/03 09:35:54;;;;;;;10.25;3.78;;;;;;;;;;4967718;28;20152;-50
2021/10/03 09:38:22;;;;;;;7.53;4.13;;;;;;;;;;4968281;28;20536;-53
2021/10/03 09:41:06;;;;;;;11.60;3.72;;;;;;;;;;4967840;28;20030;-52
2021/10/03 09:43:39;;;;;;;11.50;4.07;;;;;;;;;;4967016;28;20116;-54
2021/10/03 09:46:05;;;;;;;8.90;3.78;;;;;;;;;;4967966;28;20396;-52
2021/10/03 09:48:47;;;;;;;13.32;4.82;;;;;;;;;;4967050;28;20521;-50
2021/10/03 09:51:14;;;;;;;9.15;3.90;;;;;;;;;;4968584;28;20038;-52
2021/10/03 09:53:42;;;;;;;9.50;4.38;;;;;;;;;;4967841;28;20021;-51
2021/10/03 09:56:08;;;;;;;14.25;4.10;;;;;;;;;;4968681;28;20523;-51
2021/10/03 09:58:35;;;;;;;8.20;4.10;;;;;;;;;;4967470;28;20089;-50
2021/10/03 10:01:01;;;;;;;11.40;6.03;;;;;;;;;;4966722;28;20084;-50
2021/10/03 10:03:27;;;;;;;20.20;10.20;;;;;;;;;;4961104;28;20046;-51
2021/10/03 10:05:53;;;;;;;21.13;9.00;;;;;;;;;;4968623;28;20058;-54
2021/10/03 10:08:19;;;;;;;9.52;4.22;;;;;;;;;;4967776;28;20499;-56
2021/10/03 10:10:46;;;;;;;12.75;4.63;;;;;;;;;;4967301;28;21345;-53
2021/10/03 10:13:14;;;;;;;15.18;7.03;;;;;;;;;;4966420;28;20153;-57
2021/10/03 10:15:40;;;;;;;7.05;4.22;;;;;;;;;;4965674;28;20117;-53
2021/10/03 10:18:26;;;;;;;9.32;5.18;;;;;;;;;;4966055;28;20380;-50
2021/10/03 10:20:53;;;;;;;11.18;4.65;;;;;;;;;;4966040;28;20445;-52
2021/10/03 10:23:20;;;;;;;14.50;7.25;;;;;;;;;;4967170;28;20033;-58
2021/10/03 10:25:48;;;;;;;8.65;3.95;;;;;;;;;;4966710;28;20536;-57
2021/10/03 10:28:24;;;;;;;49.47;21.73;;;;;;;;;;4966546;28;20026;-56
2021/10/03 10:31:13;;;;;;;12.27;6.38;;;;;;;;;;4966674;28;20039;-56
2021/10/03 10:34:04;;;;;;;19.70;8.15;;;;;;;;;;4967397;28;20030;-49
2021/10/03 10:36:32;;;;;;;8.60;5.55;;;;;;;;;;4923433;29;20288;-46
2021/10/03 10:39:11;;;;;;;15.43;6.32;;;;;;;;;;4922968;29;20050;-49
2021/10/03 10:41:38;;;;;;;16.20;11.45;;;;;;;;;;4922677;29;20692;-48
2021/10/03 10:44:23;;;;;;;11.05;6.85;;;;;;;;;;4923074;28;20810;-53
2021/10/03 10:46:50;;;;;;;9.88;4.55;;;;;;;;;;4923444;28;20027;-53
2021/10/03 10:49:28;;;;;;;8.77;6.28;;;;;;;;;;4924221;29;20441;-51
2021/10/03 10:52:12;;;;;;;11.18;5.20;;;;;;;;;;4922242;29;20035;-47
2021/10/03 10:54:38;;;;;;;19.05;6.40;;;;;;;;;;4922475;29;20570;-51
2021/10/03 10:57:08;;;;;;;9.77;5.00;;;;;;;;;;4924203;29;20031;-53
2021/10/03 10:59:54;;;;;;;8.63;4.55;;;;;;;;;;4922903;29;20028;-49
2021/10/03 11:02:39;;;;;;;13.80;6.38;;;;;;;;;;4922535;28;20447;-56
2021/10/03 11:05:24;;;;;;;9.43;5.18;;;;;;;;;;4922556;29;20039;-50
2021/10/03 11:08:09;;;;;;;10.88;5.00;;;;;;;;;;4922298;29;20500;-53
2021/10/03 11:10:53;;;;;;;13.88;4.63;;;;;;;;;;4922182;29;20074;-54
2021/10/03 11:13:41;;;;;;;39.92;24.50;;;;;;;;;;4939724;28;20055;-47
2021/10/03 11:16:25;;;;;;;11.02;5.40;;;;;;;;;;4966016;28;20022;-47
2021/10/03 11:18:57;;;;;;;16.90;7.55;;;;;;;;;;4964920;28;20035;-50
2021/10/03 11:21:24;;;;;;;14.68;8.40;;;;;;;;;;4966099;28;20057;-54
2021/10/03 11:23:51;;;;;;;16.67;5.15;;;;;;;;;;4965617;28;20037;-47
2021/10/03 11:26:18;;;;;;;11.70;4.82;;;;;;;;;;4980504;28;20015;-49
2021/10/03 11:29:03;;;;;;;9.07;4.05;;;;;;;;;;4985416;28;20480;-53
2021/10/03 11:31:39;;;;;;;12.02;4.03;;;;;;;;;;4987790;28;20054;-53
2021/10/03 11:34:05;;;;;;;10.15;6.20;;;;;;;;;;4995684;28;20041;-53
2021/10/03 11:36:32;;;;;;;38.58;13.98;;;;;;;;;;4995670;28;20034;-48
2021/10/03 11:39:00;;;;;;;46.15;25.58;;;;;;;;;;4995715;28;20481;-49
2021/10/03 11:41:27;;;;;;;13.88;6.95;;;;;;;;;;4995906;28;20028;-56
2021/10/03 11:43:53;;;;;;;20.23;7.30;;;;;;;;;;4996058;28;20022;-50
2021/10/03 11:46:19;;;;;;;10.65;5.22;;;;;;;;;;4990110;28;20042;-52
2021/10/03 11:48:53;;;;;;;7.55;3.97;;;;;;;;;;4984581;28;20049;-53
2021/10/03 11:51:19;;;;;;;9.77;5.10;;;;;;;;;;4985357;28;20034;-50
2021/10/03 11:53:47;;;;;;;11.63;7.05;;;;;;;;;;4983392;28;20030;-53
2021/10/03 11:56:15;;;;;;;14.55;10.25;;;;;;;;;;4976860;28;20027;-53
2021/10/03 11:58:45;;;;;;;16.92;6.80;;;;;;;;;;4977612;28;20027;-49
2021/10/03 12:01:11;;;;;;;110.57;77.70;;;;;;;;;;4978351;28;20029;-73
2021/10/03 12:03:48;;;;;;;68.28;54.33;;;;;;;;;;4978132;28;20026;-48
2021/10/03 12:06:28;;;;;;;6.85;5.00;;;;;;;;;;4976277;28;20149;-47
2021/10/03 12:08:54;;;;;;;10.68;4.60;;;;;;;;;;4977481;28;20059;-50
2021/10/03 12:11:20;;;;;;;10.32;5.45;;;;;;;;;;4979085;28;20494;-45
2021/10/03 12:14:00;;;;;;;10.32;5.20;;;;;;;;;;4979893;28;20026;-49
2021/10/03 12:16:26;;;;;;;7.28;4.00;;;;;;;;;;4978333;28;20550;-45
2021/10/03 12:19:01;;;;;;;10.30;5.78;;;;;;;;;;4979352;28;20114;-46
2021/10/03 12:21:29;;;;;;;7.75;5.18;;;;;;;;;;4950608;28;20057;-53
2021/10/03 12:24:02;;;;;;;9.25;4.45;;;;;;;;;;4979453;28;20030;-47
2021/10/03 12:26:28;;;;;;;15.73;8.43;;;;;;;;;;4978801;28;20058;-50
2021/10/03 12:29:07;;;;;;;15.38;6.22;;;;;;;;;;4950196;28;20682;-44
2021/10/03 12:31:33;;;;;;;9.60;5.03;;;;;;;;;;4978587;28;20492;-48
2021/10/03 12:33:59;;;;;;;10.30;4.53;;;;;;;;;;4977264;28;20182;-44
2021/10/03 12:36:25;;;;;;;13.35;4.80;;;;;;;;;;4976074;28;20060;-45
2021/10/03 12:38:51;;;;;;;8.05;3.45;;;;;;;;;;4976584;28;20776;-51
2021/10/03 12:41:17;;;;;;;8.18;3.30;;;;;;;;;;4976539;28;20061;-45
2021/10/03 12:43:56;;;;;;;12.90;3.90;;;;;;;;;;4976055;28;20033;-46
2021/10/03 12:46:24;;;;;;;7.07;3.30;;;;;;;;;;4975531;28;20041;-51
2021/10/03 12:48:51;;;;;;;7.35;3.08;;;;;;;;;;4976829;28;20329;-47
2021/10/03 12:51:20;;;;;;;8.25;3.30;;;;;;;;;;4978791;28;20034;-45
2021/10/03 12:53:46;;;;;;;11.57;3.75;;;;;;;;;;4978146;28;20015;-48
2021/10/03 12:56:12;;;;;;;13.25;6.93;;;;;;;;;;4978615;28;20039;-45
2021/10/03 12:58:41;;;;;;;8.10;4.45;;;;;;;;;;4978424;28;20034;-46
2021/10/03 13:01:07;;;;;;;12.13;3.63;;;;;;;;;;4978568;28;20026;-49
2021/10/03 13:03:34;;;;;;;8.20;3.83;;;;;;;;;;4992430;28;20026;-46
2021/10/03 13:06:03;;;;;;;6.10;3.70;;;;;;;;;;5014871;28;20121;-46
2021/10/03 13:08:29;;;;;;;12.75;4.03;;;;;;;;;;5014965;28;20026;-46
2021/10/03 13:10:55;;;;;;;9.63;3.90;;;;;;;;;;5014794;28;20502;-45
2021/10/03 13:13:21;;;;;;;7.53;3.50;;;;;;;;;;5014985;28;20058;-48
2021/10/03 13:15:47;;;;;;;8.50;3.67;;;;;;;;;;5014860;28;20021;-49
2021/10/03 13:18:13;;;;;;;6.22;3.60;;;;;;;;;;5014771;28;20045;-46
2021/10/03 13:20:39;;;;;;;5.95;3.40;;;;;;;;;;5014555;28;20026;-46
2021/10/03 13:23:05;;;;;;;8.82;3.80;;;;;;;;;;5014535;28;20022;-46
2021/10/03 13:25:32;;;;;;;5.63;3.13;;;;;;;;;;5014566;28;20053;-48
2021/10/03 13:27:58;;;;;;;21.77;9.32;;;;;;;;;;4993511;28;20700;-52
2021/10/03 13:30:24;;;;;;;12.85;4.10;;;;;;;;;;4977991;28;20065;-56
2021/10/03 13:32:51;;;;;;;6.70;3.55;;;;;;;;;;4978038;28;20026;-53
2021/10/03 13:35:17;;;;;;;18.05;4.10;;;;;;;;;;4977717;28;20047;-48
2021/10/03 13:37:45;;;;;;;14.10;4.40;;;;;;;;;;4977018;28;20034;-65
2021/10/03 13:40:11;;;;;;;8.02;4.45;;;;;;;;;;4976388;28;20037;-48
2021/10/03 13:42:38;;;;;;;7.82;3.85;;;;;;;;;;4977719;28;20018;-57
2021/10/03 13:45:05;;;;;;;10.52;3.92;;;;;;;;;;4978079;28;20479;-58
2021/10/03 13:47:31;;;;;;;9.13;4.10;;;;;;;;;;4977511;28;20080;-54
2021/10/03 13:49:57;;;;;;;6.72;4.03;;;;;;;;;;4977856;28;20511;-54
2021/10/03 13:52:24;;;;;;;7.15;3.97;;;;;;;;;;4976712;28;20038;-64
2021/10/03 13:54:52;;;;;;;8.55;4.75;;;;;;;;;;4977517;28;20031;-53
2021/10/03 13:57:19;;;;;;;13.02;5.07;;;;;;;;;;4977482;28;20030;-49
2021/10/03 13:59:45;;;;;;;27.08;10.68;;;;;;;;;;4976297;28;20023;-55
2021/10/03 14:02:16;;;;;;;22.25;11.05;;;;;;;;;;4977794;28;20131;-58
2021/10/03 14:04:43;;;;;;;21.77;8.18;;;;;;;;;;4977313;28;20022;-55
2021/10/03 14:07:09;;;;;;;9.90;5.55;;;;;;;;;;4977432;28;20042;-47
2021/10/03 14:09:35;;;;;;;18.65;9.90;;;;;;;;;;4976020;28;20050;-46
2021/10/03 14:12:01;;;;;;;30.38;14.60;;;;;;;;;;4976973;28;20152;-54
2021/10/03 14:14:27;;;;;;;31.48;16.92;;;;;;;;;;4975536;28;20458;-46
2021/10/03 14:16:53;;;;;;;35.00;20.42;;;;;;;;;;4950502;28;20509;-46
2021/10/03 14:19:20;;;;;;;16.77;6.10;;;;;;;;;;4974752;28;20440;-50
2021/10/03 14:21:46;;;;;;;12.52;6.13;;;;;;;;;;4975907;28;20019;-47
2021/10/03 14:24:12;;;;;;;14.57;5.53;;;;;;;;;;4974819;28;20030;-46
2021/10/03 14:26:39;;;;;;;15.40;5.28;;;;;;;;;;4974101;28;20062;-44
2021/10/03 14:29:05;;;;;;;13.18;6.90;;;;;;;;;;4977047;28;20022;-51
2021/10/03 14:31:32;;;;;;;24.20;10.43;;;;;;;;;;4975814;28;20517;-46
2021/10/03 14:33:59;;;;;;;25.25;10.57;;;;;;;;;;4977154;28;20384;-48